createdAt,value
2023-12-12T00:00:10.918Z,37.75
2023-12-12T00:02:37.547Z,37.75
2023-12-12T00:05:04.752Z,32.50
2023-12-12T00:07:31.676Z,41.50
2023-12-12T00:09:58.671Z,38.00
2023-12-12T00:12:25.489Z,38.50
2023-12-12T00:14:52.120Z,39.25
2023-12-12T00:17:18.982Z,36.50
2023-12-12T00:19:45.874Z,39.00
2023-12-12T00:22:13.007Z,39.00
2023-12-12T00:24:39.719Z,42.00
2023-12-12T00:27:06.523Z,40.00
2023-12-12T00:29:36.999Z,40.50
2023-12-12T00:32:04.270Z,39.00
2023-12-12T00:34:31.568Z,42.00
2023-12-12T00:36:58.414Z,39.00
2023-12-12T00:39:27.969Z,38.00
2023-12-12T00:41:56.009Z,36.00
2023-12-12T00:44:22.706Z,38.25
2023-12-12T00:46:49.552Z,36.50
2023-12-12T00:49:16.489Z,38.00
2023-12-12T00:51:43.314Z,36.25
2023-12-12T00:54:10.038Z,37.00
2023-12-12T00:56:36.750Z,42.00
2023-12-12T00:59:03.630Z,40.00
2023-12-12T01:01:30.451Z,38.50
2023-12-12T01:03:57.353Z,33.50
2023-12-12T01:06:28.874Z,40.00
2023-12-12T01:08:56.666Z,40.00
2023-12-12T01:11:23.481Z,36.25
2023-12-12T01:13:50.215Z,36.00
2023-12-12T01:16:17.031Z,39.75
2023-12-12T01:18:43.872Z,37.00
2023-12-12T01:21:10.820Z,39.50
2023-12-12T01:23:54.081Z,36.25
2023-12-12T01:26:23.162Z,33.75
2023-12-12T01:28:51.007Z,36.50
2023-12-12T01:31:19.355Z,37.50
2023-12-12T01:33:46.691Z,34.00
2023-12-12T01:36:13.716Z,38.50
2023-12-12T01:38:40.506Z,36.75
2023-12-12T01:41:07.397Z,40.00
2023-12-12T01:43:34.758Z,39.50
2023-12-12T01:46:03.645Z,39.00
2023-12-12T01:48:32.691Z,40.50
2023-12-12T01:51:00.995Z,43.00
2023-12-12T01:53:40.581Z,42.75
2023-12-12T01:56:08.022Z,41.00
2023-12-12T01:58:37.106Z,42.00
2023-12-12T02:01:04.961Z,40.50
2023-12-12T02:03:32.786Z,39.25
2023-12-12T02:06:00.529Z,36.00
2023-12-12T02:08:27.567Z,42.00
2023-12-12T02:10:55.087Z,37.25
2023-12-12T02:13:22.272Z,37.50
2023-12-12T02:15:49.602Z,38.75
2023-12-12T02:18:16.496Z,36.00
2023-12-12T02:20:44.314Z,39.25
2023-12-12T02:23:11.269Z,37.50
2023-12-12T02:25:39.417Z,35.00
2023-12-12T02:28:07.925Z,39.75
2023-12-12T02:30:36.511Z,41.75
2023-12-12T02:33:05.358Z,37.00
2023-12-12T02:35:32.562Z,40.00
2023-12-12T02:37:59.465Z,35.50
2023-12-12T02:40:26.497Z,36.25
2023-12-12T02:42:54.035Z,40.50
2023-12-12T02:45:20.915Z,40.25
2023-12-12T02:47:47.704Z,33.00
2023-12-12T02:50:14.707Z,41.50
2023-12-12T02:52:41.598Z,39.25
2023-12-12T02:55:08.870Z,41.00
2023-12-12T02:57:35.710Z,38.00
2023-12-12T03:00:03.440Z,41.50
2023-12-12T03:02:30.396Z,42.00
2023-12-12T03:04:58.193Z,42.50
2023-12-12T03:07:25.624Z,39.25
2023-12-12T03:09:52.518Z,40.00
2023-12-12T03:12:19.397Z,42.00
2023-12-12T03:14:46.190Z,42.25
2023-12-12T03:17:13.044Z,37.00
2023-12-12T03:19:40.152Z,37.75
2023-12-12T03:22:07.187Z,0.00
2023-12-12T03:24:33.988Z,42.00
2023-12-12T03:27:00.766Z,39.50
2023-12-12T03:29:29.453Z,40.25
2023-12-12T03:31:56.870Z,42.00
2023-12-12T03:34:23.718Z,40.25
2023-12-12T03:36:50.902Z,34.75
2023-12-12T03:39:17.808Z,39.00
2023-12-12T03:41:45.094Z,40.00
2023-12-12T03:44:11.927Z,38.75
2023-12-12T03:46:38.621Z,34.50
2023-12-12T03:49:06.273Z,38.00
2023-12-12T03:51:33.124Z,37.50
2023-12-12T03:54:00.160Z,36.00
2023-12-12T03:56:27.056Z,39.00
2023-12-12T03:58:53.843Z,34.00
2023-12-12T04:01:21.082Z,37.50
2023-12-12T04:03:47.905Z,33.00
2023-12-12T04:06:15.001Z,36.75
2023-12-12T04:08:41.845Z,38.50
2023-12-12T04:11:09.026Z,39.00
2023-12-12T04:13:35.774Z,39.00
2023-12-12T04:16:02.543Z,39.00
2023-12-12T04:18:29.607Z,32.00
2023-12-12T04:20:56.516Z,35.00
2023-12-12T04:23:23.200Z,16.25
2023-12-12T04:25:50.116Z,42.00
2023-12-12T04:28:16.973Z,37.50
2023-12-12T04:30:43.795Z,35.00
2023-12-12T04:33:10.676Z,33.25
2023-12-12T04:35:37.566Z,41.00
2023-12-12T04:38:04.265Z,40.00
2023-12-12T04:40:31.409Z,40.00
2023-12-12T04:42:58.337Z,43.00
2023-12-12T04:45:25.145Z,41.50
2023-12-12T04:47:52.297Z,42.00
2023-12-12T04:50:19.355Z,39.00
2023-12-12T04:52:48.312Z,39.25
2023-12-12T04:55:15.387Z,40.00
2023-12-12T04:57:46.570Z,43.00
2023-12-12T05:00:17.064Z,46.00
2023-12-12T05:02:43.899Z,48.75
2023-12-12T05:05:10.774Z,47.00
2023-12-12T05:07:37.775Z,43.00
2023-12-12T05:10:05.560Z,40.00
2023-12-12T05:12:34.973Z,32.00
2023-12-12T05:15:03.609Z,40.00
2023-12-12T05:17:31.240Z,40.50
2023-12-12T05:20:00.864Z,41.50
2023-12-12T05:22:27.770Z,39.00
2023-12-12T05:24:57.659Z,34.75
2023-12-12T05:27:24.407Z,36.00
2023-12-12T05:29:51.486Z,30.50
2023-12-12T05:32:18.275Z,37.25
2023-12-12T05:34:45.070Z,39.00
2023-12-12T05:37:12.373Z,42.00
2023-12-12T05:39:39.352Z,40.00
2023-12-12T05:42:06.911Z,39.25
2023-12-12T05:44:33.698Z,36.25
2023-12-12T05:47:00.571Z,42.00
2023-12-12T05:49:27.781Z,36.25
2023-12-12T05:51:54.931Z,34.50
2023-12-12T05:54:24.955Z,37.75
2023-12-12T05:56:53.333Z,41.50
2023-12-12T05:59:20.205Z,39.75
2023-12-12T06:01:46.990Z,35.50
2023-12-12T06:04:14.611Z,34.00
2023-12-12T06:06:43.615Z,35.50
2023-12-12T06:09:14.654Z,39.00
2023-12-12T06:11:43.439Z,33.75
2023-12-12T06:14:10.715Z,45.00
2023-12-12T06:16:39.312Z,0.00
2023-12-12T06:19:06.936Z,40.00
2023-12-12T06:21:34.872Z,42.00
2023-12-12T06:24:03.594Z,40.00
2023-12-12T06:26:31.341Z,46.00
2023-12-12T06:28:58.106Z,39.00
2023-12-12T06:31:25.134Z,45.25
2023-12-12T06:33:53.777Z,49.50
2023-12-12T06:36:21.013Z,49.00
2023-12-12T06:38:47.811Z,51.50
2023-12-12T06:41:14.585Z,53.75
2023-12-12T06:43:41.304Z,51.00
2023-12-12T06:46:09.462Z,54.50
2023-12-12T06:48:38.420Z,56.25
2023-12-12T06:51:06.357Z,63.75
2023-12-12T06:53:33.701Z,98.25
2023-12-12T06:56:00.524Z,103.75
2023-12-12T06:58:27.382Z,70.50
2023-12-12T07:00:54.244Z,89.25
2023-12-12T07:03:21.088Z,0.00
2023-12-12T07:05:48.209Z,56.00
2023-12-12T07:08:15.230Z,45.00
2023-12-12T07:10:42.655Z,74.25
2023-12-12T07:13:09.517Z,69.00
2023-12-12T07:15:36.437Z,64.50
2023-12-12T07:18:03.280Z,66.75
2023-12-12T07:20:30.059Z,70.25
2023-12-12T07:22:57.004Z,67.50
2023-12-12T07:25:24.058Z,66.00
2023-12-12T07:27:51.926Z,69.25
2023-12-12T07:30:18.967Z,70.50
2023-12-12T07:32:46.046Z,66.25
2023-12-12T07:35:12.872Z,64.50
2023-12-12T07:37:39.843Z,63.50
2023-12-12T07:40:07.759Z,59.00
2023-12-12T07:42:34.592Z,55.75
2023-12-12T07:45:01.381Z,66.25
2023-12-12T07:47:34.371Z,46.50
2023-12-12T07:50:10.014Z,66.00
2023-12-12T07:52:37.624Z,5.25
2023-12-12T07:55:04.916Z,60.00
2023-12-12T07:57:32.980Z,62.00
2023-12-12T07:59:59.913Z,62.00
2023-12-12T08:02:26.761Z,78.25
2023-12-12T08:04:53.591Z,76.00
2023-12-12T08:07:21.541Z,80.50
2023-12-12T08:09:48.349Z,78.75
2023-12-12T08:12:15.128Z,80.50
2023-12-12T08:14:44.077Z,70.50
2023-12-12T08:17:12.083Z,72.00
2023-12-12T08:19:39.678Z,79.25
2023-12-12T08:22:06.558Z,77.00
2023-12-12T08:24:33.311Z,66.00
2023-12-12T08:27:00.286Z,70.25
2023-12-12T08:29:29.259Z,81.75
2023-12-12T08:31:56.935Z,80.50
2023-12-12T08:34:24.999Z,87.75
2023-12-12T08:36:51.856Z,77.25
2023-12-12T08:39:18.657Z,90.00
2023-12-12T08:41:45.890Z,86.25
2023-12-12T08:44:12.642Z,112.50
2023-12-12T08:46:39.461Z,102.25
2023-12-12T08:49:06.568Z,117.50
2023-12-12T08:51:34.426Z,123.75
2023-12-12T08:54:02.425Z,111.75
2023-12-12T08:56:29.316Z,103.50
2023-12-12T08:58:56.348Z,81.25
2023-12-12T09:01:26.565Z,72.00
2023-12-12T09:03:54.710Z,67.50
2023-12-12T09:06:21.933Z,52.50
2023-12-12T09:08:49.219Z,45.25
2023-12-12T09:11:16.156Z,34.00
2023-12-12T09:13:46.157Z,38.50
2023-12-12T09:16:13.189Z,35.00
2023-12-12T09:18:40.043Z,33.00
2023-12-12T09:21:08.219Z,28.25
2023-12-12T09:23:35.956Z,34.00
2023-12-12T09:26:03.050Z,33.50
2023-12-12T09:28:29.857Z,38.00
2023-12-12T09:30:56.987Z,36.00
2023-12-12T09:33:24.332Z,34.25
2023-12-12T09:35:51.477Z,35.25
2023-12-12T09:38:18.289Z,39.00
2023-12-12T09:40:45.245Z,36.00
2023-12-12T09:43:13.666Z,35.00
2023-12-12T09:45:47.122Z,27.50
2023-12-12T09:48:15.562Z,28.00
2023-12-12T09:50:48.505Z,29.75
2023-12-12T09:53:15.750Z,33.75
2023-12-12T09:55:42.694Z,33.25
2023-12-12T09:58:09.675Z,39.25
2023-12-12T10:00:36.535Z,34.00
2023-12-12T10:03:06.848Z,37.50
2023-12-12T10:05:39.442Z,36.50
2023-12-12T10:08:14.086Z,39.50
2023-12-12T10:10:43.176Z,38.00
2023-12-12T10:13:10.280Z,39.75
2023-12-12T10:15:37.109Z,39.50
2023-12-12T10:18:04.042Z,40.00
2023-12-12T10:20:32.468Z,39.50
2023-12-12T10:23:01.321Z,42.50
2023-12-12T10:25:33.306Z,43.00
2023-12-12T10:28:00.944Z,41.25
2023-12-12T10:30:28.523Z,35.25
2023-12-12T10:32:56.910Z,35.25
2023-12-12T10:35:25.556Z,30.25
2023-12-12T10:37:54.362Z,37.75
2023-12-12T10:40:23.928Z,38.25
2023-12-12T10:42:54.918Z,39.75
2023-12-12T10:45:22.319Z,38.75
2023-12-12T10:47:54.755Z,36.75
2023-12-12T10:50:21.645Z,34.50
2023-12-12T10:52:50.966Z,33.25
2023-12-12T10:55:21.292Z,25.50
2023-12-12T10:57:49.296Z,35.50
2023-12-12T11:00:19.649Z,36.33
2023-12-12T11:02:49.083Z,33.00
2023-12-12T11:05:16.805Z,36.67
2023-12-12T11:07:49.791Z,38.33
2023-12-12T11:10:20.676Z,38.00
2023-12-12T11:12:54.762Z,37.67
2023-12-12T11:15:25.076Z,38.67
2023-12-12T11:17:53.564Z,38.67
2023-12-12T11:20:21.405Z,41.00
2023-12-12T11:22:50.073Z,36.33
2023-12-12T11:25:21.392Z,34.67
2023-12-12T11:27:52.219Z,34.00
2023-12-12T11:30:20.772Z,35.00
2023-12-12T11:32:48.804Z,35.00
2023-12-12T11:35:33.766Z,36.00
2023-12-12T11:38:04.548Z,33.67
2023-12-12T11:40:33.537Z,36.67
2023-12-12T11:43:20.266Z,32.33
2023-12-12T11:45:47.796Z,29.75
2023-12-12T11:48:15.196Z,30.75
2023-12-12T11:50:43.043Z,28.50
2023-12-12T11:53:10.288Z,27.25
2023-12-12T11:55:44.435Z,27.00
2023-12-12T11:58:13.534Z,25.50
2023-12-12T12:00:44.548Z,25.75
2023-12-12T12:03:11.513Z,21.00
2023-12-12T12:05:38.807Z,24.25
2023-12-12T12:08:06.980Z,25.25
2023-12-12T12:10:34.276Z,23.50
2023-12-12T12:13:02.076Z,24.00
2023-12-12T12:15:29.699Z,21.50
2023-12-12T12:17:58.340Z,21.75
2023-12-12T12:20:25.278Z,18.75
2023-12-12T12:22:53.015Z,22.50
2023-12-12T12:25:24.488Z,21.50
2023-12-12T12:27:53.929Z,21.50
2023-12-12T12:30:21.681Z,22.75
2023-12-12T12:33:18.164Z,23.00
2023-12-12T12:35:52.972Z,23.00
2023-12-12T12:38:27.280Z,22.75
2023-12-12T12:40:54.492Z,24.00
2023-12-12T12:43:24.374Z,21.25
2023-12-12T12:45:52.242Z,22.50
2023-12-12T12:48:21.034Z,22.75
2023-12-12T12:50:51.073Z,25.50
2023-12-12T12:53:18.504Z,26.00
2023-12-12T12:55:46.108Z,23.00
2023-12-12T12:58:14.392Z,26.00
2023-12-12T13:00:45.817Z,25.75
2023-12-12T13:03:14.411Z,27.75
2023-12-12T13:05:41.838Z,27.00
2023-12-12T13:08:08.810Z,27.75
2023-12-12T13:10:46.675Z,27.75
2023-12-12T13:13:17.879Z,24.25
2023-12-12T13:15:44.916Z,29.00
2023-12-12T13:18:11.813Z,31.67
2023-12-12T13:20:38.550Z,29.75
2023-12-12T13:23:05.255Z,33.33
2023-12-12T13:25:32.799Z,29.50
2023-12-12T13:27:59.897Z,28.25
2023-12-12T13:30:26.982Z,28.00
2023-12-12T13:32:54.003Z,29.50
2023-12-12T13:35:33.934Z,25.00
2023-12-12T13:38:04.744Z,29.50
2023-12-12T13:40:32.726Z,31.33
2023-12-12T13:43:00.079Z,30.00
2023-12-12T13:45:26.926Z,33.33
2023-12-12T13:47:53.775Z,34.00
2023-12-12T13:50:20.800Z,34.33
2023-12-12T13:52:47.867Z,35.67
2023-12-12T13:55:14.786Z,35.67
2023-12-12T13:57:41.589Z,35.33
2023-12-12T14:00:10.961Z,36.33
2023-12-12T14:02:38.592Z,37.33
2023-12-12T14:05:06.384Z,39.67
2023-12-12T14:07:33.451Z,39.33
2023-12-12T14:10:00.397Z,37.33
2023-12-12T14:12:27.386Z,41.00
2023-12-12T14:14:55.058Z,37.67
2023-12-12T14:17:22.005Z,39.00
2023-12-12T14:19:49.122Z,38.00
2023-12-12T14:22:16.004Z,40.67
2023-12-12T14:24:43.015Z,40.00
2023-12-12T14:27:09.793Z,40.67
2023-12-12T14:29:36.914Z,39.00
2023-12-12T14:32:03.936Z,41.67
2023-12-12T14:34:30.999Z,42.33
2023-12-12T14:36:58.254Z,41.00
2023-12-12T14:39:24.961Z,42.67
2023-12-12T14:41:51.733Z,43.00
2023-12-12T14:44:18.621Z,42.00
2023-12-12T14:46:45.798Z,40.00
2023-12-12T14:49:13.032Z,40.00
2023-12-12T14:51:39.821Z,39.67
2023-12-12T14:54:06.974Z,35.67
2023-12-12T14:56:36.644Z,37.33
2023-12-12T14:59:05.666Z,37.00
2023-12-12T15:01:32.816Z,43.00
2023-12-12T15:03:59.921Z,37.00
2023-12-12T15:06:28.234Z,40.33
2023-12-12T15:08:55.163Z,38.33
2023-12-12T15:11:22.195Z,39.67
2023-12-12T15:13:49.067Z,35.67
2023-12-12T15:16:16.179Z,39.00
2023-12-12T15:18:42.960Z,36.67
2023-12-12T15:21:13.576Z,37.33
2023-12-12T15:23:41.560Z,33.33
2023-12-12T15:26:08.553Z,41.00
2023-12-12T15:28:35.635Z,39.00
2023-12-12T15:31:02.868Z,39.33
2023-12-12T15:33:33.343Z,37.33
2023-12-12T15:36:06.511Z,37.33
2023-12-12T15:38:33.517Z,45.00
2023-12-12T15:41:00.249Z,43.75
2023-12-12T15:43:27.227Z,40.75
2023-12-12T15:45:54.160Z,42.00
2023-12-12T15:48:21.251Z,42.00
2023-12-12T15:50:48.199Z,46.75
2023-12-12T15:53:15.206Z,47.75
2023-12-12T15:55:42.423Z,39.75
2023-12-12T15:58:11.601Z,34.00
2023-12-12T16:00:38.485Z,33.00
2023-12-12T16:03:05.444Z,39.00
2023-12-12T16:05:34.462Z,34.33
2023-12-12T16:08:03.713Z,37.25
2023-12-12T16:10:30.607Z,38.75
2023-12-12T16:12:57.471Z,37.00
2023-12-12T16:15:24.187Z,37.50
2023-12-12T16:17:51.137Z,36.75
2023-12-12T16:20:18.085Z,37.50
2023-12-12T16:22:45.048Z,39.25
2023-12-12T16:25:13.090Z,37.00
2023-12-12T16:27:43.828Z,41.50
2023-12-12T16:30:11.235Z,46.00
2023-12-12T16:32:38.099Z,46.00
2023-12-12T16:35:05.404Z,46.00
2023-12-12T16:37:32.422Z,46.00
2023-12-12T16:39:59.490Z,46.00
2023-12-12T16:42:28.837Z,43.50
2023-12-12T16:44:57.061Z,43.75
2023-12-12T16:47:26.524Z,42.25
2023-12-12T16:49:53.545Z,46.25
2023-12-12T16:52:20.432Z,47.50
2023-12-12T16:54:47.685Z,47.00
2023-12-12T16:57:14.529Z,45.50
2023-12-12T16:59:41.272Z,45.25
2023-12-12T17:02:08.221Z,43.00
2023-12-12T17:04:35.242Z,47.25
2023-12-12T17:07:04.828Z,45.25
2023-12-12T17:09:31.877Z,49.00
2023-12-12T17:11:58.780Z,45.75
2023-12-12T17:14:25.620Z,44.25
2023-12-12T17:16:52.402Z,45.25
2023-12-12T17:19:23.330Z,45.25
2023-12-12T17:21:53.130Z,42.25
2023-12-12T17:24:20.169Z,41.00
2023-12-12T17:26:47.641Z,39.33
2023-12-12T17:29:17.105Z,35.00
2023-12-12T17:31:45.841Z,32.67
2023-12-12T17:34:13.160Z,38.00
2023-12-12T17:36:40.219Z,33.00
2023-12-12T17:39:07.385Z,38.33
2023-12-12T17:41:34.034Z,37.00
2023-12-12T17:44:00.869Z,38.67
2023-12-12T17:46:27.728Z,38.25
2023-12-12T17:48:54.470Z,39.00
2023-12-12T17:51:21.467Z,36.67
2023-12-12T17:53:48.217Z,39.00
2023-12-12T17:56:15.356Z,38.50
2023-12-12T17:58:42.303Z,39.50
2023-12-12T18:01:09.391Z,42.50
2023-12-12T18:03:36.222Z,43.75
2023-12-12T18:06:03.328Z,42.50
2023-12-12T18:08:30.081Z,39.25
2023-12-12T18:10:57.004Z,45.50
2023-12-12T18:13:24.196Z,43.25
2023-12-12T18:15:50.972Z,29.50
2023-12-12T18:18:18.395Z,37.50
2023-12-12T18:20:45.307Z,40.75
2023-12-12T18:23:12.248Z,38.25
2023-12-12T18:25:42.006Z,38.00
2023-12-12T18:28:10.334Z,36.75
2023-12-12T18:30:49.871Z,38.00
2023-12-12T18:33:18.521Z,34.00
2023-12-12T18:35:45.443Z,39.25
2023-12-12T18:38:12.368Z,38.50
2023-12-12T18:40:40.265Z,40.75
2023-12-12T18:43:07.294Z,43.75
2023-12-12T18:45:34.316Z,40.75
2023-12-12T18:48:01.314Z,41.50
2023-12-12T18:50:29.670Z,40.25
2023-12-12T18:52:57.622Z,43.75
2023-12-12T18:55:25.651Z,42.75
2023-12-12T18:57:53.053Z,42.00
2023-12-12T19:00:19.842Z,41.75
2023-12-12T19:02:46.766Z,40.00
2023-12-12T19:05:17.125Z,39.50
2023-12-12T19:07:45.239Z,40.00
2023-12-12T19:10:13.164Z,40.00
2023-12-12T19:12:44.518Z,40.75
2023-12-12T19:15:17.522Z,40.00
2023-12-12T19:17:48.131Z,44.25
2023-12-12T19:20:15.354Z,44.00
2023-12-12T19:22:42.193Z,47.50
2023-12-12T19:25:15.161Z,47.50
2023-12-12T19:27:42.179Z,53.25
2023-12-12T19:30:10.936Z,52.50
2023-12-12T19:32:40.050Z,48.25
2023-12-12T19:35:10.053Z,51.25
2023-12-12T19:37:38.477Z,50.00
2023-12-12T19:40:09.161Z,43.75
2023-12-12T19:42:36.363Z,28.25
2023-12-12T19:45:04.465Z,37.50
2023-12-12T19:47:32.238Z,35.75
2023-12-12T19:50:02.368Z,37.00
2023-12-12T19:52:32.800Z,34.25
2023-12-12T19:55:00.784Z,37.25
2023-12-12T19:57:27.536Z,36.25
2023-12-12T19:59:54.351Z,38.25
2023-12-12T20:02:21.252Z,38.50
2023-12-12T20:04:48.024Z,38.25
2023-12-12T20:07:15.030Z,38.50
2023-12-12T20:09:43.044Z,33.50
2023-12-12T20:12:11.255Z,34.00
2023-12-12T20:14:38.901Z,32.25
2023-12-12T20:17:06.728Z,37.75
2023-12-12T20:19:34.090Z,32.50
2023-12-12T20:22:01.060Z,34.50
2023-12-12T20:24:29.599Z,37.75
2023-12-12T20:26:56.405Z,36.75
2023-12-12T20:29:23.765Z,33.50
2023-12-12T20:31:50.752Z,34.75
2023-12-12T20:34:17.818Z,35.00
2023-12-12T20:36:44.764Z,40.25
2023-12-12T20:39:13.885Z,40.25
2023-12-12T20:41:44.821Z,42.25
2023-12-12T20:44:11.856Z,40.00
2023-12-12T20:46:42.681Z,37.00
2023-12-12T20:49:10.050Z,33.75
2023-12-12T20:51:39.798Z,36.75
2023-12-12T20:54:06.650Z,34.00
2023-12-12T20:56:35.124Z,35.25
2023-12-12T20:59:01.818Z,34.75
2023-12-12T21:01:28.778Z,33.50
2023-12-12T21:03:55.967Z,35.50
2023-12-12T21:06:22.734Z,37.75
2023-12-12T21:08:49.742Z,36.50
2023-12-12T21:11:16.511Z,26.00
2023-12-12T21:13:45.700Z,34.75
2023-12-12T21:16:18.653Z,34.00
2023-12-12T21:18:46.617Z,37.25
2023-12-12T21:21:13.584Z,36.75
2023-12-12T21:23:41.655Z,33.00
2023-12-12T21:26:09.104Z,35.00
2023-12-12T21:28:39.395Z,36.50
2023-12-12T21:31:07.699Z,33.75
2023-12-12T21:33:34.707Z,33.25
2023-12-12T21:36:01.921Z,30.67
2023-12-12T21:38:29.532Z,36.50
2023-12-12T21:40:56.949Z,38.50
2023-12-12T21:43:23.985Z,35.50
2023-12-12T21:45:50.965Z,38.25
2023-12-12T21:48:17.985Z,36.75
2023-12-12T21:50:45.666Z,35.75
2023-12-12T21:53:15.321Z,36.25
2023-12-12T21:55:42.157Z,38.50
2023-12-12T21:58:10.147Z,34.75
2023-12-12T22:00:36.906Z,39.75
2023-12-12T22:03:03.791Z,39.50
2023-12-12T22:05:30.507Z,40.25
2023-12-12T22:07:57.390Z,38.50
2023-12-12T22:10:24.539Z,37.00
2023-12-12T22:12:51.283Z,39.00
2023-12-12T22:15:17.940Z,35.25
2023-12-12T22:17:44.910Z,33.00
2023-12-12T22:20:12.434Z,36.00
2023-12-12T22:22:40.728Z,37.25
2023-12-12T22:25:11.723Z,37.50
2023-12-12T22:27:38.605Z,39.75
2023-12-12T22:30:06.601Z,37.25
2023-12-12T22:32:34.167Z,34.00
2023-12-12T22:35:01.162Z,34.00
2023-12-12T22:37:27.982Z,36.75
2023-12-12T22:39:54.884Z,37.50
2023-12-12T22:42:21.588Z,26.00
2023-12-12T22:44:48.454Z,36.50
2023-12-12T22:47:15.318Z,34.00
2023-12-12T22:49:42.057Z,35.00
2023-12-12T22:52:09.450Z,33.00
2023-12-12T22:54:36.434Z,33.50
2023-12-12T22:57:03.369Z,33.00
2023-12-12T22:59:30.157Z,30.25
2023-12-12T23:01:57.246Z,33.00
2023-12-12T23:04:24.692Z,34.00
2023-12-12T23:06:52.460Z,35.25
2023-12-12T23:09:23.292Z,35.50
2023-12-12T23:11:50.493Z,32.50
2023-12-12T23:14:17.518Z,35.25
2023-12-12T23:16:44.331Z,36.25
2023-12-12T23:19:11.367Z,33.75
2023-12-12T23:21:38.184Z,34.25
2023-12-12T23:24:05.951Z,34.00
2023-12-12T23:26:32.827Z,35.25
2023-12-12T23:29:00.045Z,35.50
2023-12-12T23:31:26.867Z,33.75
2023-12-12T23:33:54.091Z,33.50
2023-12-12T23:36:20.823Z,33.50
2023-12-12T23:38:47.551Z,33.25
2023-12-12T23:41:14.359Z,32.75
2023-12-12T23:43:41.190Z,33.00
2023-12-12T23:46:08.041Z,35.00
2023-12-12T23:48:38.121Z,34.25
2023-12-12T23:51:05.322Z,33.75
2023-12-12T23:53:34.720Z,33.33
2023-12-12T23:56:02.565Z,33.00
2023-12-12T23:58:29.537Z,33.50
